createdAt,value
2018-04-19T00:00:10.345Z,18.60
2018-04-19T00:02:03.623Z,19.00
2018-04-19T00:03:03.566Z,19.80
2018-04-19T00:04:56.869Z,19.00
2018-04-19T00:05:56.784Z,18.30
2018-04-19T00:07:50.186Z,18.80
2018-04-19T00:08:50.001Z,18.30
2018-04-19T00:10:43.432Z,18.10
2018-04-19T00:11:43.369Z,18.10
2018-04-19T00:13:36.669Z,19.00
2018-04-19T00:14:36.588Z,19.80
2018-04-19T00:16:29.866Z,18.90
2018-04-19T00:17:29.805Z,19.10
2018-04-19T00:19:23.104Z,18.30
2018-04-19T00:20:23.022Z,18.50
2018-04-19T00:22:16.300Z,18.30
2018-04-19T00:23:16.238Z,18.20
2018-04-19T00:25:09.536Z,17.20
2018-04-19T00:26:09.456Z,18.00
2018-04-19T00:28:02.754Z,17.80
2018-04-19T00:29:02.673Z,18.10
2018-04-19T00:30:55.954Z,17.80
2018-04-19T00:31:55.893Z,16.70
2018-04-19T00:33:49.190Z,16.70
2018-04-19T00:34:49.109Z,17.70
2018-04-19T00:36:42.525Z,16.90
2018-04-19T00:37:42.346Z,17.40
2018-04-19T00:39:35.646Z,17.00
2018-04-19T00:40:35.565Z,16.80
2018-04-19T00:42:28.844Z,17.80
2018-04-19T00:43:28.784Z,17.40
2018-04-19T00:45:22.081Z,15.00
2018-04-19T00:46:22.002Z,16.60
2018-04-19T00:48:15.449Z,16.10
2018-04-19T00:49:15.372Z,15.90
2018-04-19T00:51:08.761Z,15.90
2018-04-19T00:52:08.592Z,15.00
2018-04-19T00:54:01.887Z,15.70
2018-04-19T00:55:01.807Z,15.30
2018-04-19T00:56:55.189Z,15.50
2018-04-19T00:57:55.016Z,15.40
2018-04-19T00:59:48.314Z,15.50
2018-04-19T01:00:48.232Z,14.80
2018-04-19T01:02:41.512Z,14.50
2018-04-19T01:03:41.447Z,15.40
2018-04-19T01:05:34.849Z,14.60
2018-04-19T01:06:34.665Z,15.70
2018-04-19T01:08:27.960Z,14.50
2018-04-19T01:09:27.880Z,13.90
2018-04-19T01:11:21.158Z,14.30
2018-04-19T01:12:21.101Z,14.60
2018-04-19T01:14:14.496Z,15.70
2018-04-19T01:15:14.310Z,15.60
2018-04-19T01:17:07.580Z,14.40
2018-04-19T01:18:07.518Z,15.20
2018-04-19T01:20:00.918Z,15.10
2018-04-19T01:21:00.736Z,16.30
2018-04-19T01:22:54.121Z,14.00
2018-04-19T01:23:53.953Z,14.50
2018-04-19T01:25:47.257Z,14.90
2018-04-19T01:26:47.180Z,15.20
2018-04-19T01:28:40.462Z,15.00
2018-04-19T01:29:40.380Z,14.10
2018-04-19T01:31:33.657Z,14.20
2018-04-19T01:32:33.596Z,15.70
2018-04-19T01:34:26.997Z,14.90
2018-04-19T01:35:26.814Z,15.00
2018-04-19T01:37:20.191Z,14.40
2018-04-19T01:38:20.015Z,14.80
2018-04-19T01:40:13.454Z,14.60
2018-04-19T01:41:13.372Z,14.50
2018-04-19T01:43:06.648Z,14.10
2018-04-19T01:44:06.585Z,14.50
2018-04-19T01:45:59.883Z,13.90
2018-04-19T01:46:59.802Z,14.50
2018-04-19T01:48:53.095Z,13.30
2018-04-19T01:49:53.015Z,13.50
2018-04-19T01:51:46.295Z,13.30
2018-04-19T01:52:46.227Z,13.80
2018-04-19T01:54:40.660Z,14.30
2018-04-19T01:55:39.445Z,14.30
2018-04-19T01:57:32.825Z,13.80
2018-04-19T01:58:32.649Z,13.70
2018-04-19T02:00:25.946Z,13.00
2018-04-19T02:01:25.862Z,14.50
2018-04-19T02:03:19.159Z,13.30
2018-04-19T02:04:19.077Z,13.70
2018-04-19T02:06:12.457Z,14.50
2018-04-19T02:07:12.339Z,14.50
2018-04-19T02:09:05.587Z,12.90
2018-04-19T02:10:05.503Z,14.10
2018-04-19T02:11:58.883Z,13.20
2018-04-19T02:12:58.715Z,13.90
2018-04-19T02:14:52.016Z,13.80
2018-04-19T02:15:51.933Z,13.30
2018-04-19T02:17:45.315Z,13.50
2018-04-19T02:18:45.152Z,13.00
2018-04-19T02:20:38.547Z,13.20
2018-04-19T02:21:38.361Z,13.20
2018-04-19T02:23:31.658Z,12.70
2018-04-19T02:24:31.574Z,12.30
2018-04-19T02:26:24.854Z,13.10
2018-04-19T02:27:24.792Z,12.60
2018-04-19T02:29:18.112Z,11.70
2018-04-19T02:30:18.033Z,12.10
2018-04-19T02:32:11.433Z,12.80
2018-04-19T02:33:11.366Z,11.90
2018-04-19T02:35:04.660Z,12.60
2018-04-19T02:36:04.578Z,13.40
2018-04-19T02:37:57.854Z,11.70
2018-04-19T02:38:57.791Z,12.00
2018-04-19T02:40:51.189Z,12.70
2018-04-19T02:41:51.003Z,12.60
2018-04-19T02:43:44.313Z,12.10
2018-04-19T02:44:44.218Z,11.70
2018-04-19T02:46:37.488Z,12.40
2018-04-19T02:47:37.427Z,12.80
2018-04-19T02:49:30.721Z,11.90
2018-04-19T02:50:30.677Z,12.20
2018-04-19T02:52:23.915Z,12.00
2018-04-19T02:53:23.852Z,11.40
2018-04-19T02:55:17.144Z,12.30
2018-04-19T02:56:17.062Z,12.70
2018-04-19T02:58:10.337Z,11.40
2018-04-19T02:59:10.276Z,11.70
2018-04-19T03:01:03.568Z,11.70
2018-04-19T03:02:03.486Z,11.40
2018-04-19T03:03:56.867Z,12.10
2018-04-19T03:04:56.698Z,12.00
2018-04-19T03:06:50.098Z,12.10
2018-04-19T03:07:49.901Z,12.30
2018-04-19T03:09:43.201Z,11.60
2018-04-19T03:10:43.112Z,11.50
2018-04-19T03:12:36.493Z,12.20
2018-04-19T03:13:36.324Z,12.70
2018-04-19T03:15:29.618Z,12.20
2018-04-19T03:16:29.536Z,11.20
2018-04-19T03:18:22.812Z,11.80
2018-04-19T03:19:22.752Z,11.60
2018-04-19T03:21:16.147Z,11.80
2018-04-19T03:22:15.961Z,11.80
2018-04-19T03:24:09.424Z,11.40
2018-04-19T03:25:09.363Z,11.70
2018-04-19T03:27:02.765Z,12.40
2018-04-19T03:28:02.579Z,12.50
2018-04-19T03:29:55.869Z,11.50
2018-04-19T03:30:55.791Z,12.30
2018-04-19T03:32:49.165Z,13.00
2018-04-19T03:33:48.997Z,12.80
2018-04-19T03:35:42.293Z,12.20
2018-04-19T03:36:42.208Z,12.00
2018-04-19T03:38:35.484Z,12.30
2018-04-19T03:39:35.421Z,12.80
2018-04-19T03:41:28.717Z,12.90
2018-04-19T03:42:28.636Z,12.30
2018-04-19T03:44:22.016Z,12.30
2018-04-19T03:45:21.847Z,12.20
2018-04-19T03:47:15.135Z,12.90
2018-04-19T03:48:15.053Z,11.90
2018-04-19T03:50:08.350Z,12.20
2018-04-19T03:51:08.268Z,12.40
2018-04-19T03:53:01.645Z,12.30
2018-04-19T03:54:01.478Z,12.30
2018-04-19T03:55:54.775Z,13.00
2018-04-19T03:56:54.691Z,12.40
2018-04-19T03:58:47.968Z,12.00
2018-04-19T03:59:47.904Z,12.20
2018-04-19T04:01:41.202Z,12.50
2018-04-19T04:02:41.119Z,13.30
2018-04-19T04:04:34.499Z,12.10
2018-04-19T04:05:34.334Z,14.10
2018-04-19T04:07:27.632Z,12.10
2018-04-19T04:08:27.550Z,13.50
2018-04-19T04:10:20.829Z,12.60
2018-04-19T04:11:20.766Z,12.80
2018-04-19T04:13:14.170Z,13.00
2018-04-19T04:14:13.982Z,13.20
2018-04-19T04:16:07.449Z,13.20
2018-04-19T04:17:07.367Z,13.20
2018-04-19T04:19:00.746Z,13.20
2018-04-19T04:20:00.588Z,12.90
2018-04-19T04:21:53.877Z,12.60
2018-04-19T04:22:53.795Z,12.70
2018-04-19T04:24:47.178Z,13.00
2018-04-19T04:25:47.008Z,12.80
2018-04-19T04:27:40.295Z,13.50
2018-04-19T04:28:40.220Z,12.80
2018-04-19T04:30:33.592Z,13.70
2018-04-19T04:31:33.425Z,13.20
2018-04-19T04:33:26.825Z,13.30
2018-04-19T04:34:26.637Z,13.30
2018-04-19T04:36:19.912Z,13.00
2018-04-19T04:37:19.850Z,13.50
2018-04-19T04:39:13.249Z,14.00
2018-04-19T04:40:13.062Z,14.30
2018-04-19T04:42:06.356Z,13.50
2018-04-19T04:43:06.273Z,13.70
2018-04-19T04:44:59.549Z,13.90
2018-04-19T04:45:59.489Z,13.90
2018-04-19T04:47:52.942Z,13.90
2018-04-19T04:48:52.697Z,13.20
2018-04-19T04:50:45.976Z,13.50
2018-04-19T04:51:45.912Z,12.90
2018-04-19T04:53:39.207Z,13.70
2018-04-19T04:54:39.124Z,13.40
2018-04-19T04:56:32.401Z,14.30
2018-04-19T04:57:32.339Z,13.70
2018-04-19T04:59:25.636Z,13.60
2018-04-19T05:00:25.550Z,13.90
2018-04-19T05:02:18.822Z,13.50
2018-04-19T05:03:18.760Z,14.80
2018-04-19T05:05:12.052Z,13.40
2018-04-19T05:06:11.970Z,13.40
2018-04-19T05:08:05.450Z,12.80
2018-04-19T05:09:05.365Z,12.70
2018-04-19T05:10:58.744Z,13.80
2018-04-19T05:11:58.575Z,13.70
2018-04-19T05:13:51.869Z,13.20
2018-04-19T05:14:51.784Z,13.20
2018-04-19T05:16:45.164Z,13.90
2018-04-19T05:17:44.996Z,14.10
2018-04-19T05:19:38.288Z,13.10
2018-04-19T05:20:38.205Z,13.80
2018-04-19T05:22:31.481Z,13.50
2018-04-19T05:23:31.415Z,13.20
2018-04-19T05:25:24.707Z,12.50
2018-04-19T05:26:24.625Z,12.50
2018-04-19T05:28:17.919Z,12.40
2018-04-19T05:29:17.839Z,12.40
2018-04-19T05:31:11.216Z,13.00
2018-04-19T05:32:11.046Z,13.20
2018-04-19T05:34:04.443Z,13.80
2018-04-19T05:35:04.257Z,13.10
2018-04-19T05:36:57.636Z,12.90
2018-04-19T05:37:57.457Z,12.90
2018-04-19T05:39:50.771Z,13.40
2018-04-19T05:40:50.687Z,13.70
2018-04-19T05:42:44.068Z,13.20
2018-04-19T05:43:43.895Z,13.60
2018-04-19T05:45:37.297Z,13.10
2018-04-19T05:46:37.109Z,12.40
2018-04-19T05:48:30.384Z,12.50
2018-04-19T05:49:30.319Z,12.90
2018-04-19T05:51:23.613Z,13.60
2018-04-19T05:52:23.532Z,13.80
2018-04-19T05:54:16.816Z,13.40
2018-04-19T05:55:16.735Z,13.60
2018-04-19T05:57:10.112Z,12.70
2018-04-19T05:58:09.952Z,12.80
2018-04-19T06:00:03.344Z,12.90
2018-04-19T06:01:03.147Z,12.30
2018-04-19T06:02:56.422Z,12.60
2018-04-19T06:03:56.361Z,12.50
2018-04-19T06:05:49.760Z,13.30
2018-04-19T06:06:49.574Z,13.10
2018-04-19T06:08:42.867Z,13.10
2018-04-19T06:09:42.771Z,12.90
2018-04-19T06:11:36.057Z,13.10
2018-04-19T06:12:35.976Z,13.60
2018-04-19T06:14:29.453Z,12.40
2018-04-19T06:15:29.365Z,12.60
2018-04-19T06:17:22.634Z,13.10
2018-04-19T06:18:22.568Z,12.60
2018-04-19T06:20:15.853Z,12.10
2018-04-19T06:21:15.771Z,12.60
2018-04-19T06:23:09.153Z,12.30
2018-04-19T06:24:08.973Z,12.50
2018-04-19T06:26:02.257Z,12.40
2018-04-19T06:27:02.175Z,12.30
2018-04-19T06:28:56.063Z,12.70
2018-04-19T06:29:55.383Z,12.70
2018-04-19T06:31:48.664Z,12.50
2018-04-19T06:32:48.582Z,12.80
2018-04-19T06:34:41.964Z,13.30
2018-04-19T06:35:41.786Z,12.50
2018-04-19T06:37:35.073Z,12.60
2018-04-19T06:38:34.990Z,12.30
2018-04-19T06:40:28.279Z,12.80
2018-04-19T06:41:28.243Z,12.60
2018-04-19T06:43:20.979Z,12.60
2018-04-19T06:44:20.918Z,13.00
2018-04-19T06:46:14.201Z,12.80
2018-04-19T06:47:14.121Z,12.20
2018-04-19T06:49:08.004Z,12.80
2018-04-19T06:50:07.373Z,12.90
2018-04-19T06:52:00.659Z,12.20
2018-04-19T06:53:00.584Z,12.50
2018-04-19T06:54:53.964Z,12.30
2018-04-19T06:55:53.784Z,12.20
2018-04-19T06:57:47.186Z,13.20
2018-04-19T06:58:46.993Z,12.60
2018-04-19T07:00:40.377Z,12.70
2018-04-19T07:01:40.207Z,12.80
2018-04-19T07:03:33.492Z,13.10
2018-04-19T07:04:33.410Z,13.20
2018-04-19T07:06:26.816Z,13.20
2018-04-19T07:07:26.619Z,13.10
2018-04-19T07:09:19.887Z,13.00
2018-04-19T07:10:19.829Z,13.20
2018-04-19T07:12:13.228Z,13.90
2018-04-19T07:13:13.037Z,13.00
2018-04-19T07:15:06.438Z,13.20
2018-04-19T07:16:06.372Z,12.90
2018-04-19T07:17:59.662Z,12.80
2018-04-19T07:18:59.590Z,12.00
2018-04-19T07:20:52.968Z,12.20
2018-04-19T07:21:52.792Z,12.30
2018-04-19T07:23:46.082Z,13.40
2018-04-19T07:24:46.043Z,13.30
2018-04-19T07:26:40.462Z,13.60
2018-04-19T07:27:40.376Z,13.40
2018-04-19T07:29:33.694Z,12.70
2018-04-19T07:30:33.589Z,12.60
2018-04-19T07:32:27.007Z,13.40
2018-04-19T07:33:26.808Z,12.80
2018-04-19T07:35:20.079Z,12.40
2018-04-19T07:36:20.024Z,12.90
2018-04-19T07:38:13.426Z,13.00
2018-04-19T07:39:13.238Z,13.00
2018-04-19T07:41:06.625Z,12.40
2018-04-19T07:42:06.457Z,11.70
2018-04-19T07:43:59.751Z,12.90
2018-04-19T07:44:59.675Z,13.20
2018-04-19T07:46:52.954Z,12.30
2018-04-19T07:47:52.897Z,12.70
2018-04-19T07:49:46.197Z,12.00
2018-04-19T07:50:46.120Z,12.20
2018-04-19T07:52:39.457Z,11.70
2018-04-19T07:53:39.375Z,12.10
2018-04-19T07:55:33.264Z,11.50
2018-04-19T07:56:32.603Z,12.10
2018-04-19T07:58:25.896Z,12.40
2018-04-19T07:59:25.826Z,12.80
2018-04-19T08:01:19.097Z,12.10
2018-04-19T08:02:19.044Z,12.30
2018-04-19T08:04:12.452Z,12.00
2018-04-19T08:05:12.382Z,11.40
2018-04-19T08:07:05.656Z,12.40
2018-04-19T08:08:05.602Z,11.70
2018-04-19T08:09:58.901Z,11.50
2018-04-19T08:10:58.829Z,11.70
2018-04-19T08:12:52.108Z,12.20
2018-04-19T08:13:52.051Z,11.90
2018-04-19T08:15:45.354Z,12.80
2018-04-19T08:16:45.280Z,12.40
2018-04-19T08:18:38.692Z,12.60
2018-04-19T08:19:38.515Z,11.40
2018-04-19T08:21:31.801Z,11.80
2018-04-19T08:22:31.745Z,11.70
2018-04-19T08:24:25.157Z,13.30
2018-04-19T08:25:24.976Z,12.40
2018-04-19T08:27:18.435Z,12.60
2018-04-19T08:28:18.381Z,12.30
2018-04-19T08:30:11.792Z,12.00
2018-04-19T08:31:11.609Z,12.30
2018-04-19T08:33:04.893Z,12.60
2018-04-19T08:34:04.845Z,11.80
2018-04-19T08:35:58.142Z,12.50
2018-04-19T08:36:58.068Z,12.60
2018-04-19T08:38:51.497Z,12.40
2018-04-19T08:39:51.308Z,12.50
2018-04-19T08:41:44.580Z,13.00
2018-04-19T08:42:44.527Z,12.70
2018-04-19T08:44:38.452Z,11.80
2018-04-19T08:45:37.759Z,12.00
2018-04-19T08:47:31.150Z,12.80
2018-04-19T08:48:30.996Z,12.20
2018-04-19T08:50:24.454Z,12.40
2018-04-19T08:51:24.384Z,13.10
2018-04-19T08:53:17.795Z,13.60
2018-04-19T08:54:17.613Z,13.60
2018-04-19T08:56:11.026Z,12.70
2018-04-19T08:57:10.846Z,12.20
2018-04-19T08:59:04.244Z,12.10
2018-04-19T09:00:04.085Z,11.90
2018-04-19T09:01:57.388Z,11.80
2018-04-19T09:02:57.317Z,12.40
2018-04-19T09:04:50.729Z,12.10
2018-04-19T09:05:50.551Z,11.80
2018-04-19T09:07:43.948Z,11.20
2018-04-19T09:08:43.787Z,11.20
2018-04-19T09:10:37.204Z,11.20
2018-04-19T09:11:37.023Z,11.40
2018-04-19T09:13:30.483Z,11.60
2018-04-19T09:14:30.394Z,10.90
2018-04-19T09:16:23.702Z,11.40
2018-04-19T09:17:23.631Z,11.90
2018-04-19T09:19:17.027Z,11.80
2018-04-19T09:20:16.867Z,11.10
2018-04-19T09:22:10.177Z,9.50
2018-04-19T09:23:10.104Z,9.60
2018-04-19T09:25:03.393Z,7.40
2018-04-19T09:26:03.342Z,8.00
2018-04-19T09:27:56.648Z,8.80
2018-04-19T09:28:56.577Z,8.50
2018-04-19T09:30:49.883Z,8.10
2018-04-19T09:31:49.816Z,8.50
2018-04-19T09:33:44.105Z,8.00
2018-04-19T09:34:44.051Z,6.90
2018-04-19T09:36:37.465Z,7.30
2018-04-19T09:37:37.287Z,8.00
2018-04-19T09:39:30.588Z,6.90
2018-04-19T09:40:30.526Z,7.70
2018-04-19T09:42:23.941Z,7.50
2018-04-19T09:43:23.767Z,6.10
2018-04-19T09:45:17.059Z,4.80
2018-04-19T09:46:17.007Z,5.10
2018-04-19T09:48:10.927Z,5.50
2018-04-19T09:49:10.385Z,4.90
2018-04-19T09:51:03.704Z,5.20
2018-04-19T09:52:03.625Z,4.90
2018-04-19T09:53:57.069Z,5.30
2018-04-19T09:54:56.867Z,5.80
2018-04-19T09:56:50.283Z,5.80
2018-04-19T09:57:50.115Z,5.30
2018-04-19T09:59:43.407Z,5.50
2018-04-19T10:00:43.356Z,5.70
2018-04-19T10:02:36.679Z,4.60
2018-04-19T10:03:36.609Z,4.30
2018-04-19T10:05:30.006Z,4.40
2018-04-19T10:06:29.852Z,4.40
2018-04-19T10:08:23.163Z,4.90
2018-04-19T10:09:23.096Z,4.70
2018-04-19T10:11:16.462Z,4.80
2018-04-19T10:12:16.388Z,4.80
2018-04-19T10:14:09.682Z,4.60
2018-04-19T10:15:09.633Z,4.70
2018-04-19T10:17:02.947Z,4.10
2018-04-19T10:18:02.878Z,4.10
2018-04-19T10:19:56.277Z,4.60
2018-04-19T10:20:56.132Z,4.00
2018-04-19T10:22:49.445Z,4.10
2018-04-19T10:23:49.387Z,4.20
2018-04-19T10:25:42.694Z,4.10
2018-04-19T10:26:42.640Z,4.00
2018-04-19T10:28:35.950Z,4.10
2018-04-19T10:29:35.881Z,4.00
2018-04-19T10:31:29.279Z,3.80
2018-04-19T10:32:29.129Z,3.80
2018-04-19T10:34:22.439Z,3.70
2018-04-19T10:35:22.371Z,3.80
2018-04-19T10:37:15.667Z,4.10
2018-04-19T10:38:15.628Z,3.80
2018-04-19T10:40:08.939Z,4.80
2018-04-19T10:41:08.863Z,4.30
2018-04-19T10:43:02.178Z,3.80
2018-04-19T10:44:02.109Z,3.80
2018-04-19T10:45:55.400Z,4.20
2018-04-19T10:46:55.353Z,4.10
2018-04-19T10:48:48.771Z,3.70
2018-04-19T10:49:48.601Z,3.80
2018-04-19T10:51:41.894Z,3.30
2018-04-19T10:52:41.845Z,3.70
2018-04-19T10:54:35.266Z,3.80
2018-04-19T10:55:35.093Z,3.90
2018-04-19T10:57:28.528Z,3.70
2018-04-19T10:58:28.342Z,3.80
2018-04-19T11:00:21.761Z,3.90
2018-04-19T11:01:21.588Z,4.20
2018-04-19T11:03:15.005Z,4.00
2018-04-19T11:04:14.839Z,4.30
2018-04-19T11:06:08.239Z,3.90
2018-04-19T11:07:08.120Z,4.80
2018-04-19T11:09:01.434Z,4.10
2018-04-19T11:10:01.368Z,4.00
2018-04-19T11:11:54.666Z,4.60
2018-04-19T11:12:54.612Z,4.30
2018-04-19T11:14:47.929Z,5.10
2018-04-19T11:15:47.863Z,5.20
2018-04-19T11:17:41.163Z,5.80
2018-04-19T11:18:41.108Z,5.60
2018-04-19T11:20:34.424Z,5.30
2018-04-19T11:21:34.357Z,4.80
2018-04-19T11:23:27.644Z,4.90
2018-04-19T11:24:27.593Z,5.00
2018-04-19T11:26:21.012Z,5.50
2018-04-19T11:27:20.835Z,5.50
2018-04-19T11:29:14.148Z,5.50
2018-04-19T11:30:14.069Z,5.30
2018-04-19T11:32:07.382Z,5.70
2018-04-19T11:33:07.331Z,5.50
2018-04-19T11:35:00.636Z,5.20
2018-04-19T11:36:00.571Z,5.30
2018-04-19T11:37:53.963Z,6.60
2018-04-19T11:38:53.801Z,6.50
2018-04-19T11:40:47.115Z,6.80
2018-04-19T11:41:47.043Z,6.50
2018-04-19T11:43:40.436Z,6.10
2018-04-19T11:44:40.278Z,5.70
2018-04-19T11:46:33.585Z,6.70
2018-04-19T11:47:33.516Z,7.10
2018-04-19T11:49:26.909Z,7.20
2018-04-19T11:50:26.760Z,7.10
2018-04-19T11:52:20.176Z,6.50
2018-04-19T11:53:20.006Z,7.90
2018-04-19T11:55:13.420Z,7.20
2018-04-19T11:56:13.251Z,6.80
2018-04-19T11:58:06.550Z,6.80
2018-04-19T11:59:06.499Z,6.30
2018-04-19T12:00:59.877Z,6.30
2018-04-19T12:01:59.773Z,6.20
2018-04-19T12:03:53.071Z,5.30
2018-04-19T12:04:53.019Z,5.80
2018-04-19T12:06:46.348Z,5.90
2018-04-19T12:07:46.278Z,6.20
2018-04-19T12:09:39.671Z,6.10
2018-04-19T12:10:39.525Z,5.80
2018-04-19T12:12:32.936Z,6.00
2018-04-19T12:13:32.798Z,6.30
2018-04-19T12:15:26.088Z,6.00
2018-04-19T12:16:26.012Z,5.80
2018-04-19T12:18:19.308Z,5.20
2018-04-19T12:19:19.260Z,5.40
2018-04-19T12:21:12.672Z,4.80
2018-04-19T12:22:12.507Z,4.90
2018-04-19T12:24:05.797Z,4.60
2018-04-19T12:25:05.744Z,5.30
2018-04-19T12:26:59.159Z,5.10
2018-04-19T12:27:58.995Z,5.30
2018-04-19T12:29:52.332Z,5.20
2018-04-19T12:30:52.281Z,5.60
2018-04-19T12:32:45.698Z,5.10
2018-04-19T12:33:45.526Z,5.00
2018-04-19T12:35:38.924Z,5.70
2018-04-19T12:36:38.772Z,5.10
2018-04-19T12:38:32.088Z,5.00
2018-04-19T12:39:32.019Z,5.40
2018-04-19T12:41:25.337Z,5.50
2018-04-19T12:42:25.259Z,5.20
2018-04-19T12:44:18.560Z,6.50
2018-04-19T12:45:18.506Z,5.70
2018-04-19T12:47:11.814Z,5.60
2018-04-19T12:48:11.740Z,5.90
2018-04-19T12:50:05.135Z,5.40
2018-04-19T12:51:04.987Z,5.60
2018-04-19T12:52:58.301Z,5.90
2018-04-19T12:53:58.229Z,6.80
2018-04-19T12:55:51.526Z,6.60
2018-04-19T12:56:51.474Z,6.10
2018-04-19T12:58:45.389Z,6.60
2018-04-19T12:59:44.718Z,6.70
2018-04-19T13:01:38.015Z,6.80
2018-04-19T13:02:37.964Z,6.40
2018-04-19T13:04:31.279Z,6.50
2018-04-19T13:05:31.208Z,6.20
2018-04-19T13:07:24.530Z,6.30
2018-04-19T13:08:24.443Z,5.80
2018-04-19T13:10:17.747Z,7.00
2018-04-19T13:11:17.690Z,7.20
2018-04-19T13:13:11.005Z,6.30
2018-04-19T13:14:10.934Z,6.60
2018-04-19T13:16:04.232Z,6.40
2018-04-19T13:17:04.179Z,6.60
2018-04-19T13:18:57.497Z,7.30
2018-04-19T13:19:57.425Z,6.80
2018-04-19T13:21:50.718Z,7.40
2018-04-19T13:22:50.663Z,7.00
2018-04-19T13:24:44.074Z,7.00
2018-04-19T13:25:43.953Z,7.20
2018-04-19T13:27:37.209Z,7.20
2018-04-19T13:28:37.138Z,6.60
2018-04-19T13:30:30.542Z,7.30
2018-04-19T13:31:30.371Z,6.40
2018-04-19T13:33:23.791Z,6.30
2018-04-19T13:34:23.607Z,6.50
2018-04-19T13:36:17.006Z,5.80
2018-04-19T13:37:16.843Z,6.50
2018-04-19T13:39:10.259Z,5.50
2018-04-19T13:40:10.083Z,5.60
2018-04-19T13:42:03.369Z,4.90
2018-04-19T13:43:03.312Z,5.30
2018-04-19T13:44:56.732Z,5.10
2018-04-19T13:45:56.554Z,5.30
2018-04-19T13:47:49.847Z,4.70
2018-04-19T13:48:49.797Z,4.60
2018-04-19T13:50:43.211Z,4.70
2018-04-19T13:51:43.029Z,4.20
2018-04-19T13:53:36.350Z,3.90
2018-04-19T13:54:36.291Z,4.30
2018-04-19T13:56:29.577Z,4.20
2018-04-19T13:57:29.525Z,4.10
2018-04-19T13:59:22.833Z,4.30
2018-04-19T14:00:22.762Z,4.80
2018-04-19T14:02:16.658Z,3.70
2018-04-19T14:03:16.001Z,4.00
2018-04-19T14:05:09.320Z,4.00
2018-04-19T14:06:09.235Z,4.10
2018-04-19T14:08:02.523Z,4.60
2018-04-19T14:09:02.473Z,4.10
2018-04-19T14:10:55.780Z,4.40
2018-04-19T14:11:55.707Z,4.30
2018-04-19T14:13:49.001Z,3.90
2018-04-19T14:14:48.947Z,3.80
2018-04-19T14:16:42.253Z,4.20
2018-04-19T14:17:42.183Z,3.30
2018-04-19T14:19:35.491Z,3.30
2018-04-19T14:20:35.418Z,3.50
2018-04-19T14:22:28.814Z,3.40
2018-04-19T14:23:28.658Z,3.20
2018-04-19T14:25:21.976Z,3.30
2018-04-19T14:26:21.908Z,3.60
2018-04-19T14:28:15.302Z,3.50
2018-04-19T14:29:15.143Z,3.40
2018-04-19T14:31:08.610Z,3.90
2018-04-19T14:32:08.383Z,4.20
2018-04-19T14:34:01.672Z,4.00
2018-04-19T14:35:01.628Z,3.90
2018-04-19T14:36:55.041Z,4.50
2018-04-19T14:37:54.861Z,4.30
2018-04-19T14:39:48.192Z,4.30
2018-04-19T14:40:48.098Z,3.90
2018-04-19T14:42:41.494Z,3.30
2018-04-19T14:43:41.391Z,3.50
2018-04-19T14:45:34.651Z,3.50
2018-04-19T14:46:34.618Z,3.40
2018-04-19T14:48:27.870Z,3.50
2018-04-19T14:49:27.829Z,3.70
2018-04-19T14:51:21.239Z,3.40
2018-04-19T14:52:21.055Z,3.60
2018-04-19T14:54:14.455Z,3.40
2018-04-19T14:55:14.309Z,3.60
2018-04-19T14:57:07.605Z,3.50
2018-04-19T14:58:07.532Z,3.30
2018-04-19T15:00:00.820Z,3.30
2018-04-19T15:01:00.771Z,3.30
2018-04-19T15:02:54.078Z,3.30
2018-04-19T15:03:54.006Z,3.10
2018-04-19T15:05:47.929Z,3.20
2018-04-19T15:06:47.243Z,3.10
2018-04-19T15:08:40.533Z,2.80
2018-04-19T15:09:40.482Z,3.50
2018-04-19T15:11:34.794Z,3.10
2018-04-19T15:12:33.718Z,3.20
2018-04-19T15:14:27.010Z,3.30
2018-04-19T15:15:26.971Z,3.30
2018-04-19T15:17:20.375Z,3.00
2018-04-19T15:18:20.283Z,3.00
2018-04-19T15:20:13.684Z,2.90
2018-04-19T15:21:13.522Z,3.10
2018-04-19T15:23:06.936Z,2.70
2018-04-19T15:24:06.760Z,2.60
2018-04-19T15:26:00.073Z,2.70
2018-04-19T15:26:59.996Z,2.80
2018-04-19T15:28:53.287Z,2.50
2018-04-19T15:29:53.235Z,3.00
2018-04-19T15:31:46.583Z,2.90
2018-04-19T15:32:46.475Z,2.60
2018-04-19T15:34:39.891Z,2.80
2018-04-19T15:35:39.712Z,2.70
2018-04-19T15:37:33.002Z,2.70
2018-04-19T15:38:32.953Z,2.60
2018-04-19T15:40:26.375Z,2.70
2018-04-19T15:41:26.194Z,2.90
2018-04-19T15:43:19.590Z,2.90
2018-04-19T15:44:19.431Z,3.00
2018-04-19T15:46:12.749Z,2.40
2018-04-19T15:47:12.680Z,2.40
2018-04-19T15:49:06.092Z,2.70
2018-04-19T15:50:05.913Z,3.00
2018-04-19T15:51:59.329Z,2.60
2018-04-19T15:52:59.152Z,2.60
2018-04-19T15:54:52.439Z,2.50
2018-04-19T15:55:52.389Z,2.50
2018-04-19T15:57:45.709Z,2.80
2018-04-19T15:58:45.642Z,2.60
2018-04-19T16:00:39.031Z,3.10
2018-04-19T16:01:38.875Z,2.50
2018-04-19T16:03:32.181Z,2.70
2018-04-19T16:04:32.111Z,2.70
2018-04-19T16:06:25.425Z,2.90
2018-04-19T16:07:25.358Z,2.60
2018-04-19T16:09:20.289Z,2.70
2018-04-19T16:10:19.611Z,2.70
2018-04-19T16:12:12.915Z,2.80
2018-04-19T16:13:12.862Z,2.70
2018-04-19T16:15:06.223Z,2.50
2018-04-19T16:16:06.110Z,2.60
2018-04-19T16:17:58.929Z,2.30
2018-04-19T16:18:58.917Z,2.50
2018-04-19T16:20:52.213Z,3.10
2018-04-19T16:21:52.135Z,3.10
2018-04-19T16:23:45.462Z,2.70
2018-04-19T16:24:45.376Z,2.60
2018-04-19T16:26:38.697Z,2.90
2018-04-19T16:27:38.710Z,2.60
2018-04-19T16:29:31.999Z,2.60
2018-04-19T16:30:31.924Z,2.70
2018-04-19T16:32:26.227Z,2.80
2018-04-19T16:33:26.177Z,2.80
2018-04-19T16:35:19.500Z,3.00
2018-04-19T16:36:19.420Z,3.10
2018-04-19T16:38:12.769Z,3.00
2018-04-19T16:39:12.676Z,3.20
2018-04-19T16:41:06.007Z,3.20
2018-04-19T16:42:05.994Z,3.30
2018-04-19T16:43:59.397Z,3.30
2018-04-19T16:44:59.177Z,3.30
2018-04-19T16:46:52.478Z,3.30
2018-04-19T16:47:52.421Z,3.70
2018-04-19T16:49:45.734Z,3.30
2018-04-19T16:50:45.678Z,3.50
2018-04-19T16:52:38.962Z,3.80
2018-04-19T16:53:38.905Z,3.70
2018-04-19T16:55:32.231Z,4.40
2018-04-19T16:56:32.147Z,3.80
2018-04-19T16:58:25.440Z,4.50
2018-04-19T16:59:25.387Z,4.60
2018-04-19T17:01:18.817Z,4.30
2018-04-19T17:02:18.629Z,4.60
2018-04-19T17:04:11.931Z,4.60
2018-04-19T17:05:11.859Z,4.60
2018-04-19T17:07:05.161Z,4.50
2018-04-19T17:08:05.108Z,4.60
2018-04-19T17:09:58.424Z,4.80
2018-04-19T17:10:58.345Z,4.80
2018-04-19T17:12:51.636Z,4.80
2018-04-19T17:13:51.579Z,4.70
2018-04-19T17:15:44.898Z,4.50
2018-04-19T17:16:44.834Z,4.60
2018-04-19T17:18:38.119Z,4.40
2018-04-19T17:19:38.076Z,4.60
2018-04-19T17:21:31.374Z,4.40
2018-04-19T17:22:31.300Z,4.30
2018-04-19T17:24:24.697Z,4.20
2018-04-19T17:25:24.533Z,4.20
2018-04-19T17:27:17.841Z,4.30
2018-04-19T17:28:17.767Z,4.60
2018-04-19T17:30:11.072Z,5.40
2018-04-19T17:31:10.999Z,4.00
2018-04-19T17:33:04.395Z,4.70
2018-04-19T17:34:04.294Z,4.30
2018-04-19T17:35:57.705Z,4.50
2018-04-19T17:36:57.532Z,4.20
2018-04-19T17:38:50.808Z,4.60
2018-04-19T17:39:50.755Z,4.70
2018-04-19T17:41:44.093Z,4.50
2018-04-19T17:42:44.019Z,4.60
2018-04-19T17:44:37.411Z,4.70
2018-04-19T17:45:37.251Z,4.60
2018-04-19T17:47:31.557Z,4.40
2018-04-19T17:48:31.484Z,4.80
2018-04-19T17:50:24.806Z,4.00
2018-04-19T17:51:24.732Z,4.10
2018-04-19T17:53:18.125Z,4.30
2018-04-19T17:54:17.961Z,4.90
2018-04-19T17:56:11.264Z,4.00
2018-04-19T17:57:11.224Z,4.10
2018-04-19T17:59:04.476Z,4.50
2018-04-19T18:00:04.424Z,4.40
2018-04-19T18:01:57.738Z,4.60
2018-04-19T18:02:57.661Z,4.20
2018-04-19T18:04:50.960Z,4.40
2018-04-19T18:05:50.903Z,4.20
2018-04-19T18:07:44.214Z,4.60
2018-04-19T18:08:44.138Z,4.20
2018-04-19T18:10:37.531Z,3.90
2018-04-19T18:11:37.371Z,4.50
2018-04-19T18:13:30.682Z,4.10
2018-04-19T18:14:30.610Z,4.40
2018-04-19T18:16:24.518Z,4.00
2018-04-19T18:17:23.854Z,4.30
2018-04-19T18:19:17.136Z,4.20
2018-04-19T18:20:17.082Z,4.10
2018-04-19T18:22:10.494Z,4.30
2018-04-19T18:23:10.312Z,4.50
2018-04-19T18:25:03.709Z,4.10
2018-04-19T18:26:03.556Z,4.00
2018-04-19T18:27:56.914Z,4.20
2018-04-19T18:28:56.814Z,4.20
2018-04-19T18:30:50.099Z,4.30
2018-04-19T18:31:50.044Z,4.60
2018-04-19T18:33:43.364Z,4.40
2018-04-19T18:34:43.284Z,4.10
2018-04-19T18:36:36.569Z,4.00
2018-04-19T18:37:36.515Z,4.60
2018-04-19T18:39:29.816Z,4.60
2018-04-19T18:40:29.744Z,3.90
2018-04-19T18:42:23.045Z,4.50
2018-04-19T18:43:22.983Z,4.30
2018-04-19T18:45:16.367Z,4.10
2018-04-19T18:46:16.275Z,4.20
2018-04-19T18:48:09.689Z,3.90
2018-04-19T18:49:09.505Z,4.10
2018-04-19T18:51:02.799Z,3.90
2018-04-19T18:52:02.745Z,4.20
2018-04-19T18:53:56.056Z,4.10